sensor_id;sensor_type;location;lat;lon;timestamp;P1;durP1;ratioP1;P2;durP2;ratioP2
48875;SDS011;34689;51.644;5.618;2023-04-24T00:01:12;4.18;;;3.03;;
48875;SDS011;34689;51.644;5.618;2023-04-24T00:03:42;4.38;;;3.10;;
48875;SDS011;34689;51.644;5.618;2023-04-24T00:06:07;3.92;;;3.10;;
48875;SDS011;34689;51.644;5.618;2023-04-24T00:08:36;3.50;;;2.92;;
48875;SDS011;34689;51.644;5.618;2023-04-24T00:11:02;6.93;;;3.03;;
48875;SDS011;34689;51.644;5.618;2023-04-24T00:13:30;4.63;;;2.67;;
48875;SDS011;34689;51.644;5.618;2023-04-24T00:15:55;5.80;;;3.13;;
48875;SDS011;34689;51.644;5.618;2023-04-24T00:18:21;3.47;;;2.58;;
48875;SDS011;34689;51.644;5.618;2023-04-24T00:20:50;6.63;;;3.45;;
48875;SDS011;34689;51.644;5.618;2023-04-24T00:23:15;4.75;;;2.95;;
48875;SDS011;34689;51.644;5.618;2023-04-24T00:25:41;4.65;;;3.80;;
48875;SDS011;34689;51.644;5.618;2023-04-24T00:28:07;3.28;;;2.55;;
48875;SDS011;34689;51.644;5.618;2023-04-24T00:30:32;4.70;;;3.35;;
48875;SDS011;34689;51.644;5.618;2023-04-24T00:32:58;6.35;;;4.47;;
48875;SDS011;34689;51.644;5.618;2023-04-24T00:35:26;5.30;;;4.20;;
48875;SDS011;34689;51.644;5.618;2023-04-24T00:37:54;8.52;;;4.30;;
48875;SDS011;34689;51.644;5.618;2023-04-24T00:40:22;9.25;;;4.75;;
48875;SDS011;34689;51.644;5.618;2023-04-24T00:42:47;5.53;;;4.25;;
48875;SDS011;34689;51.644;5.618;2023-04-24T00:45:16;8.23;;;5.00;;
48875;SDS011;34689;51.644;5.618;2023-04-24T00:47:42;6.35;;;4.65;;
48875;SDS011;34689;51.644;5.618;2023-04-24T00:50:10;7.13;;;4.47;;
48875;SDS011;34689;51.644;5.618;2023-04-24T00:52:38;6.93;;;4.70;;
48875;SDS011;34689;51.644;5.618;2023-04-24T00:55:09;10.20;;;6.78;;
48875;SDS011;34689;51.644;5.618;2023-04-24T00:57:35;7.35;;;4.82;;
48875;SDS011;34689;51.644;5.618;2023-04-24T01:00:01;9.52;;;6.10;;
48875;SDS011;34689;51.644;5.618;2023-04-24T01:02:28;9.20;;;6.50;;
48875;SDS011;34689;51.644;5.618;2023-04-24T01:04:59;8.27;;;5.25;;
48875;SDS011;34689;51.644;5.618;2023-04-24T01:07:28;12.80;;;5.80;;
48875;SDS011;34689;51.644;5.618;2023-04-24T01:09:56;9.75;;;5.18;;
48875;SDS011;34689;51.644;5.618;2023-04-24T01:12:22;14.52;;;6.55;;
48875;SDS011;34689;51.644;5.618;2023-04-24T01:14:48;9.90;;;5.93;;
48875;SDS011;34689;51.644;5.618;2023-04-24T01:17:14;12.60;;;7.50;;
48875;SDS011;34689;51.644;5.618;2023-04-24T01:19:40;10.95;;;5.70;;
48875;SDS011;34689;51.644;5.618;2023-04-24T01:22:12;14.57;;;8.13;;
48875;SDS011;34689;51.644;5.618;2023-04-24T01:24:39;9.73;;;5.45;;
48875;SDS011;34689;51.644;5.618;2023-04-24T01:27:06;9.52;;;6.65;;
48875;SDS011;34689;51.644;5.618;2023-04-24T01:29:32;8.70;;;5.60;;
48875;SDS011;34689;51.644;5.618;2023-04-24T01:32:03;13.45;;;8.48;;
48875;SDS011;34689;51.644;5.618;2023-04-24T01:34:31;18.58;;;8.20;;
48875;SDS011;34689;51.644;5.618;2023-04-24T01:36:57;12.85;;;8.05;;
48875;SDS011;34689;51.644;5.618;2023-04-24T01:39:23;8.38;;;5.95;;
48875;SDS011;34689;51.644;5.618;2023-04-24T01:41:53;6.75;;;5.00;;
48875;SDS011;34689;51.644;5.618;2023-04-24T01:44:20;7.82;;;5.40;;
48875;SDS011;34689;51.644;5.618;2023-04-24T01:46:46;12.02;;;6.40;;
48875;SDS011;34689;51.644;5.618;2023-04-24T01:49:12;7.57;;;5.35;;
48875;SDS011;34689;51.644;5.618;2023-04-24T01:51:38;7.55;;;5.13;;
48875;SDS011;34689;51.644;5.618;2023-04-24T01:54:04;8.68;;;5.72;;
48875;SDS011;34689;51.644;5.618;2023-04-24T01:56:30;11.38;;;7.47;;
48875;SDS011;34689;51.644;5.618;2023-04-24T01:59:02;7.47;;;5.65;;
48875;SDS011;34689;51.644;5.618;2023-04-24T02:04:23;14.68;;;8.15;;
48875;SDS011;34689;51.644;5.618;2023-04-24T02:06:49;14.18;;;8.55;;
48875;SDS011;34689;51.644;5.618;2023-04-24T02:09:16;13.98;;;9.45;;
48875;SDS011;34689;51.644;5.618;2023-04-24T02:11:42;17.92;;;11.80;;
48875;SDS011;34689;51.644;5.618;2023-04-24T02:14:08;14.40;;;9.40;;
48875;SDS011;34689;51.644;5.618;2023-04-24T02:19:19;17.40;;;10.40;;
48875;SDS011;34689;51.644;5.618;2023-04-24T02:21:45;15.65;;;9.65;;
48875;SDS011;34689;51.644;5.618;2023-04-24T02:26:57;13.90;;;8.65;;
48875;SDS011;34689;51.644;5.618;2023-04-24T02:29:23;13.25;;;8.77;;
48875;SDS011;34689;51.644;5.618;2023-04-24T02:31:48;14.38;;;8.45;;
48875;SDS011;34689;51.644;5.618;2023-04-24T02:34:14;19.35;;;11.10;;
48875;SDS011;34689;51.644;5.618;2023-04-24T02:36:39;18.27;;;9.75;;
48875;SDS011;34689;51.644;5.618;2023-04-24T02:39:05;24.92;;;12.07;;
48875;SDS011;34689;51.644;5.618;2023-04-24T02:41:31;13.32;;;8.77;;
48875;SDS011;34689;51.644;5.618;2023-04-24T02:43:57;14.57;;;9.75;;
48875;SDS011;34689;51.644;5.618;2023-04-24T02:46:23;17.42;;;9.45;;
48875;SDS011;34689;51.644;5.618;2023-04-24T02:48:49;21.60;;;11.65;;
48875;SDS011;34689;51.644;5.618;2023-04-24T02:51:15;19.35;;;11.55;;
48875;SDS011;34689;51.644;5.618;2023-04-24T02:53:41;14.95;;;8.95;;
48875;SDS011;34689;51.644;5.618;2023-04-24T02:56:09;11.38;;;7.93;;
48875;SDS011;34689;51.644;5.618;2023-04-24T02:58:37;17.13;;;10.73;;
48875;SDS011;34689;51.644;5.618;2023-04-24T03:01:03;13.75;;;8.63;;
48875;SDS011;34689;51.644;5.618;2023-04-24T03:03:29;13.68;;;7.95;;
48875;SDS011;34689;51.644;5.618;2023-04-24T03:05:55;14.85;;;10.00;;
48875;SDS011;34689;51.644;5.618;2023-04-24T03:08:22;12.32;;;8.38;;
48875;SDS011;34689;51.644;5.618;2023-04-24T03:10:48;11.93;;;7.55;;
48875;SDS011;34689;51.644;5.618;2023-04-24T03:13:15;15.45;;;8.43;;
48875;SDS011;34689;51.644;5.618;2023-04-24T03:15:41;11.82;;;7.20;;
48875;SDS011;34689;51.644;5.618;2023-04-24T03:18:11;11.18;;;7.72;;
48875;SDS011;34689;51.644;5.618;2023-04-24T03:20:37;9.43;;;7.22;;
48875;SDS011;34689;51.644;5.618;2023-04-24T03:23:02;12.95;;;8.32;;
48875;SDS011;34689;51.644;5.618;2023-04-24T03:25:28;11.40;;;6.82;;
48875;SDS011;34689;51.644;5.618;2023-04-24T03:27:54;13.77;;;8.70;;
48875;SDS011;34689;51.644;5.618;2023-04-24T03:30:20;10.48;;;7.38;;
48875;SDS011;34689;51.644;5.618;2023-04-24T03:32:48;13.38;;;8.18;;
48875;SDS011;34689;51.644;5.618;2023-04-24T03:35:14;16.95;;;10.45;;
48875;SDS011;34689;51.644;5.618;2023-04-24T03:37:42;13.70;;;8.65;;
48875;SDS011;34689;51.644;5.618;2023-04-24T03:40:08;11.25;;;8.55;;
48875;SDS011;34689;51.644;5.618;2023-04-24T03:42:34;12.68;;;9.48;;
48875;SDS011;34689;51.644;5.618;2023-04-24T03:45:02;16.85;;;9.93;;
48875;SDS011;34689;51.644;5.618;2023-04-24T03:47:28;13.25;;;8.07;;
48875;SDS011;34689;51.644;5.618;2023-04-24T03:49:53;14.70;;;8.82;;
48875;SDS011;34689;51.644;5.618;2023-04-24T03:52:24;12.65;;;7.72;;
48875;SDS011;34689;51.644;5.618;2023-04-24T03:54:50;20.75;;;11.15;;
48875;SDS011;34689;51.644;5.618;2023-04-24T03:57:16;13.05;;;8.25;;
48875;SDS011;34689;51.644;5.618;2023-04-24T03:59:41;14.38;;;8.18;;
48875;SDS011;34689;51.644;5.618;2023-04-24T04:02:07;13.68;;;7.72;;
48875;SDS011;34689;51.644;5.618;2023-04-24T04:04:33;16.63;;;8.73;;
48875;SDS011;34689;51.644;5.618;2023-04-24T04:07:01;13.70;;;8.90;;
48875;SDS011;34689;51.644;5.618;2023-04-24T04:09:27;12.88;;;8.20;;
48875;SDS011;34689;51.644;5.618;2023-04-24T04:11:53;10.50;;;7.85;;
48875;SDS011;34689;51.644;5.618;2023-04-24T04:14:22;9.82;;;6.88;;
48875;SDS011;34689;51.644;5.618;2023-04-24T04:16:48;11.38;;;6.63;;
48875;SDS011;34689;51.644;5.618;2023-04-24T04:19:16;15.13;;;7.78;;
48875;SDS011;34689;51.644;5.618;2023-04-24T04:21:42;12.05;;;7.35;;
48875;SDS011;34689;51.644;5.618;2023-04-24T04:24:07;8.85;;;5.47;;
48875;SDS011;34689;51.644;5.618;2023-04-24T04:26:35;11.57;;;6.63;;
48875;SDS011;34689;51.644;5.618;2023-04-24T04:29:02;9.30;;;6.45;;
48875;SDS011;34689;51.644;5.618;2023-04-24T04:31:31;8.77;;;6.22;;
48875;SDS011;34689;51.644;5.618;2023-04-24T04:33:59;11.60;;;6.82;;
48875;SDS011;34689;51.644;5.618;2023-04-24T04:36:26;10.05;;;6.53;;
48875;SDS011;34689;51.644;5.618;2023-04-24T04:38:54;11.38;;;5.97;;
48875;SDS011;34689;51.644;5.618;2023-04-24T04:41:20;8.10;;;5.30;;
48875;SDS011;34689;51.644;5.618;2023-04-24T04:43:48;9.20;;;6.95;;
48875;SDS011;34689;51.644;5.618;2023-04-24T04:46:15;13.55;;;7.85;;
48875;SDS011;34689;51.644;5.618;2023-04-24T04:48:44;13.07;;;7.75;;
48875;SDS011;34689;51.644;5.618;2023-04-24T04:51:10;10.95;;;7.07;;
48875;SDS011;34689;51.644;5.618;2023-04-24T04:53:38;8.63;;;5.13;;
48875;SDS011;34689;51.644;5.618;2023-04-24T04:56:04;12.57;;;7.78;;
48875;SDS011;34689;51.644;5.618;2023-04-24T04:58:30;10.85;;;7.13;;
48875;SDS011;34689;51.644;5.618;2023-04-24T05:00:56;6.97;;;5.40;;
48875;SDS011;34689;51.644;5.618;2023-04-24T05:03:22;11.63;;;7.22;;
48875;SDS011;34689;51.644;5.618;2023-04-24T05:05:47;11.52;;;6.88;;
48875;SDS011;34689;51.644;5.618;2023-04-24T05:08:13;10.75;;;6.50;;
48875;SDS011;34689;51.644;5.618;2023-04-24T05:10:39;7.43;;;5.57;;
48875;SDS011;34689;51.644;5.618;2023-04-24T05:13:04;7.60;;;4.95;;
48875;SDS011;34689;51.644;5.618;2023-04-24T05:15:30;9.43;;;6.82;;
48875;SDS011;34689;51.644;5.618;2023-04-24T05:17:56;7.60;;;5.72;;
48875;SDS011;34689;51.644;5.618;2023-04-24T05:20:21;7.63;;;4.93;;
48875;SDS011;34689;51.644;5.618;2023-04-24T05:22:47;8.18;;;5.85;;
48875;SDS011;34689;51.644;5.618;2023-04-24T05:25:13;7.18;;;4.85;;
48875;SDS011;34689;51.644;5.618;2023-04-24T05:27:39;8.32;;;4.38;;
48875;SDS011;34689;51.644;5.618;2023-04-24T05:30:05;5.68;;;3.22;;
48875;SDS011;34689;51.644;5.618;2023-04-24T05:32:31;6.97;;;4.95;;
48875;SDS011;34689;51.644;5.618;2023-04-24T05:37:43;7.03;;;4.43;;
48875;SDS011;34689;51.644;5.618;2023-04-24T05:40:09;4.63;;;3.28;;
48875;SDS011;34689;51.644;5.618;2023-04-24T05:42:36;7.72;;;4.68;;
48875;SDS011;34689;51.644;5.618;2023-04-24T05:45:02;5.15;;;3.53;;
48875;SDS011;34689;51.644;5.618;2023-04-24T05:47:28;4.65;;;3.20;;
48875;SDS011;34689;51.644;5.618;2023-04-24T05:49:54;5.28;;;3.42;;
48875;SDS011;34689;51.644;5.618;2023-04-24T05:52:21;5.95;;;4.25;;
48875;SDS011;34689;51.644;5.618;2023-04-24T05:54:47;5.63;;;3.10;;
48875;SDS011;34689;51.644;5.618;2023-04-24T05:57:13;4.65;;;2.80;;
48875;SDS011;34689;51.644;5.618;2023-04-24T05:59:38;3.42;;;2.47;;
48875;SDS011;34689;51.644;5.618;2023-04-24T06:02:05;2.88;;;2.17;;
48875;SDS011;34689;51.644;5.618;2023-04-24T06:04:32;3.53;;;2.15;;
48875;SDS011;34689;51.644;5.618;2023-04-24T06:07:00;4.25;;;2.35;;
48875;SDS011;34689;51.644;5.618;2023-04-24T06:09:26;2.08;;;1.50;;
48875;SDS011;34689;51.644;5.618;2023-04-24T06:11:51;2.67;;;1.95;;
48875;SDS011;34689;51.644;5.618;2023-04-24T06:14:19;3.67;;;1.30;;
48875;SDS011;34689;51.644;5.618;2023-04-24T06:16:46;1.55;;;1.10;;
48875;SDS011;34689;51.644;5.618;2023-04-24T06:19:11;2.40;;;1.65;;
48875;SDS011;34689;51.644;5.618;2023-04-24T06:21:37;1.65;;;1.30;;
48875;SDS011;34689;51.644;5.618;2023-04-24T06:24:03;1.67;;;1.02;;
48875;SDS011;34689;51.644;5.618;2023-04-24T06:26:29;1.27;;;0.65;;
48875;SDS011;34689;51.644;5.618;2023-04-24T06:28:57;0.77;;;0.50;;
48875;SDS011;34689;51.644;5.618;2023-04-24T06:31:24;2.33;;;0.50;;
48875;SDS011;34689;51.644;5.618;2023-04-24T06:33:50;1.50;;;0.88;;
48875;SDS011;34689;51.644;5.618;2023-04-24T06:36:16;0.90;;;0.90;;
48875;SDS011;34689;51.644;5.618;2023-04-24T06:38:42;0.52;;;0.30;;
48875;SDS011;34689;51.644;5.618;2023-04-24T06:41:07;1.75;;;0.75;;
48875;SDS011;34689;51.644;5.618;2023-04-24T06:43:34;0.38;;;0.30;;
48875;SDS011;34689;51.644;5.618;2023-04-24T06:46:00;0.75;;;0.43;;
48875;SDS011;34689;51.644;5.618;2023-04-24T06:48:28;0.50;;;0.35;;
48875;SDS011;34689;51.644;5.618;2023-04-24T06:50:54;0.75;;;0.50;;
48875;SDS011;34689;51.644;5.618;2023-04-24T06:53:20;1.38;;;0.57;;
48875;SDS011;34689;51.644;5.618;2023-04-24T06:55:46;1.48;;;0.63;;
48875;SDS011;34689;51.644;5.618;2023-04-24T06:58:11;0.80;;;0.57;;
48875;SDS011;34689;51.644;5.618;2023-04-24T07:00:37;1.88;;;1.20;;
48875;SDS011;34689;51.644;5.618;2023-04-24T07:03:06;1.20;;;0.82;;
48875;SDS011;34689;51.644;5.618;2023-04-24T07:05:32;1.40;;;0.98;;
48875;SDS011;34689;51.644;5.618;2023-04-24T07:08:00;2.70;;;1.70;;
48875;SDS011;34689;51.644;5.618;2023-04-24T07:10:26;1.35;;;1.08;;
48875;SDS011;34689;51.644;5.618;2023-04-24T07:12:53;6.03;;;2.03;;
48875;SDS011;34689;51.644;5.618;2023-04-24T07:15:20;3.15;;;2.08;;
48875;SDS011;34689;51.644;5.618;2023-04-24T07:17:46;2.92;;;2.00;;
48875;SDS011;34689;51.644;5.618;2023-04-24T07:20:14;3.17;;;1.98;;
48875;SDS011;34689;51.644;5.618;2023-04-24T07:22:42;4.63;;;2.55;;
48875;SDS011;34689;51.644;5.618;2023-04-24T07:25:08;2.35;;;1.80;;
48875;SDS011;34689;51.644;5.618;2023-04-24T07:27:37;2.58;;;1.83;;
48875;SDS011;34689;51.644;5.618;2023-04-24T07:30:03;4.55;;;3.40;;
48875;SDS011;34689;51.644;5.618;2023-04-24T07:32:29;7.22;;;4.03;;
48875;SDS011;34689;51.644;5.618;2023-04-24T07:34:55;9.23;;;4.75;;
48875;SDS011;34689;51.644;5.618;2023-04-24T07:37:21;8.77;;;4.72;;
48875;SDS011;34689;51.644;5.618;2023-04-24T07:39:49;9.40;;;4.13;;
48875;SDS011;34689;51.644;5.618;2023-04-24T07:42:14;7.15;;;4.38;;
48875;SDS011;34689;51.644;5.618;2023-04-24T07:44:40;5.80;;;3.42;;
48875;SDS011;34689;51.644;5.618;2023-04-24T07:47:08;5.82;;;3.92;;
48875;SDS011;34689;51.644;5.618;2023-04-24T07:49:34;7.00;;;3.42;;
48875;SDS011;34689;51.644;5.618;2023-04-24T07:52:00;4.22;;;3.20;;
48875;SDS011;34689;51.644;5.618;2023-04-24T07:54:27;7.32;;;3.50;;
48875;SDS011;34689;51.644;5.618;2023-04-24T07:56:53;4.22;;;2.45;;
48875;SDS011;34689;51.644;5.618;2023-04-24T07:59:19;5.85;;;2.80;;
48875;SDS011;34689;51.644;5.618;2023-04-24T08:01:45;4.00;;;2.50;;
48875;SDS011;34689;51.644;5.618;2023-04-24T08:04:14;7.57;;;3.38;;
48875;SDS011;34689;51.644;5.618;2023-04-24T08:06:39;5.40;;;2.42;;
48875;SDS011;34689;51.644;5.618;2023-04-24T08:09:08;8.10;;;3.63;;
48875;SDS011;34689;51.644;5.618;2023-04-24T08:11:33;5.18;;;4.03;;
48875;SDS011;34689;51.644;5.618;2023-04-24T08:14:01;8.05;;;3.05;;
48875;SDS011;34689;51.644;5.618;2023-04-24T08:16:29;8.18;;;2.92;;
48875;SDS011;34689;51.644;5.618;2023-04-24T08:18:55;7.88;;;3.50;;
48875;SDS011;34689;51.644;5.618;2023-04-24T08:21:21;11.05;;;3.50;;
48875;SDS011;34689;51.644;5.618;2023-04-24T08:23:46;6.57;;;2.92;;
48875;SDS011;34689;51.644;5.618;2023-04-24T08:26:13;8.90;;;2.60;;
48875;SDS011;34689;51.644;5.618;2023-04-24T08:28:41;10.43;;;3.10;;
48875;SDS011;34689;51.644;5.618;2023-04-24T08:31:07;6.40;;;2.58;;
48875;SDS011;34689;51.644;5.618;2023-04-24T08:33:35;5.78;;;2.10;;
48875;SDS011;34689;51.644;5.618;2023-04-24T08:36:02;5.57;;;2.45;;
48875;SDS011;34689;51.644;5.618;2023-04-24T08:38:30;3.72;;;1.92;;
48875;SDS011;34689;51.644;5.618;2023-04-24T08:40:57;4.80;;;1.80;;
48875;SDS011;34689;51.644;5.618;2023-04-24T08:43:25;2.50;;;1.35;;
48875;SDS011;34689;51.644;5.618;2023-04-24T08:45:57;1.48;;;1.17;;
48875;SDS011;34689;51.644;5.618;2023-04-24T08:48:28;5.50;;;1.85;;
48875;SDS011;34689;51.644;5.618;2023-04-24T08:50:54;3.20;;;1.45;;
48875;SDS011;34689;51.644;5.618;2023-04-24T08:53:21;7.25;;;2.47;;
48875;SDS011;34689;51.644;5.618;2023-04-24T08:55:48;5.65;;;1.80;;
48875;SDS011;34689;51.644;5.618;2023-04-24T08:58:16;6.95;;;1.90;;
48875;SDS011;34689;51.644;5.618;2023-04-24T09:00:46;8.82;;;1.90;;
48875;SDS011;34689;51.644;5.618;2023-04-24T09:03:13;6.90;;;1.58;;
48875;SDS011;34689;51.644;5.618;2023-04-24T09:05:43;6.60;;;1.50;;
48875;SDS011;34689;51.644;5.618;2023-04-24T09:08:18;3.58;;;1.50;;
48875;SDS011;34689;51.644;5.618;2023-04-24T09:10:48;6.07;;;1.88;;
48875;SDS011;34689;51.644;5.618;2023-04-24T09:13:14;5.13;;;1.50;;
48875;SDS011;34689;51.644;5.618;2023-04-24T09:15:45;9.35;;;1.52;;
48875;SDS011;34689;51.644;5.618;2023-04-24T09:18:11;1.98;;;1.67;;
48875;SDS011;34689;51.644;5.618;2023-04-24T09:23:33;6.22;;;1.35;;
48875;SDS011;34689;51.644;5.618;2023-04-24T09:26:07;5.43;;;1.80;;
48875;SDS011;34689;51.644;5.618;2023-04-24T09:28:42;5.85;;;1.10;;
48875;SDS011;34689;51.644;5.618;2023-04-24T09:31:12;2.08;;;1.20;;
48875;SDS011;34689;51.644;5.618;2023-04-24T09:36:29;4.82;;;1.70;;
48875;SDS011;34689;51.644;5.618;2023-04-24T09:39:04;5.18;;;1.27;;
48875;SDS011;34689;51.644;5.618;2023-04-24T09:41:43;1.95;;;1.23;;
48875;SDS011;34689;51.644;5.618;2023-04-24T09:44:13;4.32;;;1.33;;
48875;SDS011;34689;51.644;5.618;2023-04-24T09:46:49;4.93;;;1.20;;
48875;SDS011;34689;51.644;5.618;2023-04-24T09:49:30;2.60;;;0.75;;
48875;SDS011;34689;51.644;5.618;2023-04-24T09:52:05;3.15;;;1.02;;
48875;SDS011;34689;51.644;5.618;2023-04-24T09:54:34;4.95;;;2.45;;
48875;SDS011;34689;51.644;5.618;2023-04-24T09:57:01;5.03;;;1.45;;
48875;SDS011;34689;51.644;5.618;2023-04-24T09:59:28;2.20;;;0.98;;
48875;SDS011;34689;51.644;5.618;2023-04-24T10:01:54;1.55;;;0.77;;
48875;SDS011;34689;51.644;5.618;2023-04-24T10:04:22;2.30;;;0.93;;
48875;SDS011;34689;51.644;5.618;2023-04-24T10:06:51;2.75;;;0.80;;
48875;SDS011;34689;51.644;5.618;2023-04-24T10:09:20;5.95;;;1.13;;
48875;SDS011;34689;51.644;5.618;2023-04-24T10:11:48;3.45;;;1.48;;
48875;SDS011;34689;51.644;5.618;2023-04-24T10:14:16;5.10;;;1.63;;
48875;SDS011;34689;51.644;5.618;2023-04-24T10:16:43;2.78;;;1.30;;
48875;SDS011;34689;51.644;5.618;2023-04-24T10:19:12;3.58;;;1.80;;
48875;SDS011;34689;51.644;5.618;2023-04-24T10:21:40;5.28;;;1.20;;
48875;SDS011;34689;51.644;5.618;2023-04-24T10:24:16;1.33;;;1.15;;
48875;SDS011;34689;51.644;5.618;2023-04-24T10:26:51;3.05;;;1.30;;
48875;SDS011;34689;51.644;5.618;2023-04-24T10:29:21;3.22;;;1.73;;
48875;SDS011;34689;51.644;5.618;2023-04-24T10:31:53;2.33;;;1.17;;
48875;SDS011;34689;51.644;5.618;2023-04-24T10:34:23;1.95;;;0.60;;
48875;SDS011;34689;51.644;5.618;2023-04-24T10:36:52;9.93;;;1.30;;
48875;SDS011;34689;51.644;5.618;2023-04-24T10:39:22;2.20;;;1.13;;
48875;SDS011;34689;51.644;5.618;2023-04-24T10:41:49;1.92;;;1.00;;
48875;SDS011;34689;51.644;5.618;2023-04-24T10:44:18;3.83;;;1.23;;
48875;SDS011;34689;51.644;5.618;2023-04-24T10:46:49;2.28;;;0.93;;
48875;SDS011;34689;51.644;5.618;2023-04-24T10:49:19;2.22;;;1.65;;
48875;SDS011;34689;51.644;5.618;2023-04-24T10:52:00;3.58;;;0.85;;
48875;SDS011;34689;51.644;5.618;2023-04-24T10:59:44;1.05;;;0.52;;
48875;SDS011;34689;51.644;5.618;2023-04-24T11:02:14;2.55;;;0.88;;
48875;SDS011;34689;51.644;5.618;2023-04-24T11:04:43;1.95;;;0.80;;
48875;SDS011;34689;51.644;5.618;2023-04-24T11:07:10;2.55;;;0.75;;
48875;SDS011;34689;51.644;5.618;2023-04-24T11:09:36;3.28;;;0.50;;
48875;SDS011;34689;51.644;5.618;2023-04-24T11:17:31;1.77;;;0.45;;
48875;SDS011;34689;51.644;5.618;2023-04-24T11:20:17;1.30;;;0.40;;
48875;SDS011;34689;51.644;5.618;2023-04-24T11:22:43;0.90;;;0.55;;
48875;SDS011;34689;51.644;5.618;2023-04-24T11:25:09;2.88;;;0.70;;
48875;SDS011;34689;51.644;5.618;2023-04-24T11:27:40;1.48;;;0.70;;
48875;SDS011;34689;51.644;5.618;2023-04-24T11:30:11;3.78;;;0.85;;
48875;SDS011;34689;51.644;5.618;2023-04-24T11:32:42;3.20;;;1.15;;
48875;SDS011;34689;51.644;5.618;2023-04-24T11:35:10;1.70;;;1.20;;
48875;SDS011;34689;51.644;5.618;2023-04-24T11:37:39;3.58;;;0.93;;
48875;SDS011;34689;51.644;5.618;2023-04-24T11:40:07;2.92;;;1.13;;
48875;SDS011;34689;51.644;5.618;2023-04-24T11:42:35;0.82;;;0.38;;
48875;SDS011;34689;51.644;5.618;2023-04-24T11:45:01;0.35;;;0.35;;
48875;SDS011;34689;51.644;5.618;2023-04-24T11:47:35;1.52;;;0.43;;
48875;SDS011;34689;51.644;5.618;2023-04-24T11:50:01;0.30;;;0.30;;
48875;SDS011;34689;51.644;5.618;2023-04-24T11:52:29;2.38;;;0.30;;
48875;SDS011;34689;51.644;5.618;2023-04-24T11:54:55;2.20;;;0.57;;
48875;SDS011;34689;51.644;5.618;2023-04-24T11:57:22;1.50;;;0.50;;
48875;SDS011;34689;51.644;5.618;2023-04-24T11:59:51;1.35;;;0.40;;
48875;SDS011;34689;51.644;5.618;2023-04-24T12:02:21;2.10;;;0.50;;
48875;SDS011;34689;51.644;5.618;2023-04-24T12:04:47;0.95;;;0.50;;
48875;SDS011;34689;51.644;5.618;2023-04-24T12:07:13;4.53;;;0.82;;
48875;SDS011;34689;51.644;5.618;2023-04-24T12:09:42;2.30;;;0.57;;
48875;SDS011;34689;51.644;5.618;2023-04-24T12:12:29;0.25;;;0.25;;
48875;SDS011;34689;51.644;5.618;2023-04-24T12:14:56;1.88;;;0.40;;
48875;SDS011;34689;51.644;5.618;2023-04-24T12:17:27;6.63;;;0.90;;
48875;SDS011;34689;51.644;5.618;2023-04-24T12:20:02;1.98;;;0.40;;
48875;SDS011;34689;51.644;5.618;2023-04-24T12:22:54;1.00;;;0.75;;
48875;SDS011;34689;51.644;5.618;2023-04-24T12:25:27;1.65;;;0.60;;
48875;SDS011;34689;51.644;5.618;2023-04-24T12:27:55;2.65;;;0.73;;
48875;SDS011;34689;51.644;5.618;2023-04-24T12:30:43;3.75;;;0.73;;
48875;SDS011;34689;51.644;5.618;2023-04-24T12:33:22;1.38;;;0.40;;
48875;SDS011;34689;51.644;5.618;2023-04-24T12:35:48;1.35;;;0.50;;
48875;SDS011;34689;51.644;5.618;2023-04-24T12:38:21;0.75;;;0.40;;
48875;SDS011;34689;51.644;5.618;2023-04-24T12:41:00;1.38;;;0.60;;
48875;SDS011;34689;51.644;5.618;2023-04-24T12:43:30;0.32;;;0.30;;
48875;SDS011;34689;51.644;5.618;2023-04-24T12:45:57;1.45;;;0.35;;
48875;SDS011;34689;51.644;5.618;2023-04-24T12:48:26;2.10;;;0.65;;
48875;SDS011;34689;51.644;5.618;2023-04-24T12:50:58;2.42;;;0.60;;
48875;SDS011;34689;51.644;5.618;2023-04-24T12:53:27;1.45;;;0.70;;
48875;SDS011;34689;51.644;5.618;2023-04-24T12:55:55;0.82;;;0.60;;
48875;SDS011;34689;51.644;5.618;2023-04-24T12:58:21;1.25;;;0.80;;
48875;SDS011;34689;51.644;5.618;2023-04-24T13:00:50;1.75;;;0.70;;
48875;SDS011;34689;51.644;5.618;2023-04-24T13:03:16;0.73;;;0.60;;
48875;SDS011;34689;51.644;5.618;2023-04-24T13:05:43;1.08;;;0.60;;
48875;SDS011;34689;51.644;5.618;2023-04-24T13:08:08;1.38;;;0.60;;
48875;SDS011;34689;51.644;5.618;2023-04-24T13:10:34;2.47;;;0.38;;
48875;SDS011;34689;51.644;5.618;2023-04-24T13:13:00;2.17;;;0.50;;
48875;SDS011;34689;51.644;5.618;2023-04-24T13:15:26;1.27;;;0.47;;
48875;SDS011;34689;51.644;5.618;2023-04-24T13:17:52;1.13;;;0.80;;
48875;SDS011;34689;51.644;5.618;2023-04-24T13:20:17;2.20;;;0.60;;
48875;SDS011;34689;51.644;5.618;2023-04-24T13:22:43;2.65;;;0.80;;
48875;SDS011;34689;51.644;5.618;2023-04-24T13:25:09;0.75;;;0.40;;
48875;SDS011;34689;51.644;5.618;2023-04-24T13:27:35;1.13;;;0.68;;
48875;SDS011;34689;51.644;5.618;2023-04-24T13:30:06;1.58;;;0.82;;
48875;SDS011;34689;51.644;5.618;2023-04-24T13:32:33;4.60;;;0.90;;
48875;SDS011;34689;51.644;5.618;2023-04-24T13:35:00;1.75;;;0.60;;
48875;SDS011;34689;51.644;5.618;2023-04-24T13:37:25;1.38;;;0.60;;
48875;SDS011;34689;51.644;5.618;2023-04-24T13:39:54;0.93;;;0.55;;
48875;SDS011;34689;51.644;5.618;2023-04-24T13:42:22;1.95;;;0.80;;
48875;SDS011;34689;51.644;5.618;2023-04-24T13:44:48;1.08;;;0.50;;
48875;SDS011;34689;51.644;5.618;2023-04-24T13:47:14;1.13;;;0.55;;
48875;SDS011;34689;51.644;5.618;2023-04-24T13:49:42;1.33;;;0.57;;
48875;SDS011;34689;51.644;5.618;2023-04-24T13:52:08;2.63;;;0.80;;
48875;SDS011;34689;51.644;5.618;2023-04-24T13:54:36;4.88;;;0.65;;
48875;SDS011;34689;51.644;5.618;2023-04-24T13:57:04;4.70;;;0.95;;
48875;SDS011;34689;51.644;5.618;2023-04-24T13:59:33;3.22;;;1.13;;
48875;SDS011;34689;51.644;5.618;2023-04-24T14:02:02;1.35;;;0.47;;
48875;SDS011;34689;51.644;5.618;2023-04-24T14:04:27;3.53;;;1.00;;
48875;SDS011;34689;51.644;5.618;2023-04-24T14:06:55;1.88;;;0.70;;
48875;SDS011;34689;51.644;5.618;2023-04-24T14:09:21;0.60;;;0.40;;
48875;SDS011;34689;51.644;5.618;2023-04-24T14:11:46;1.75;;;0.57;;
48875;SDS011;34689;51.644;5.618;2023-04-24T14:14:12;0.68;;;0.25;;
48875;SDS011;34689;51.644;5.618;2023-04-24T14:16:38;0.40;;;0.20;;
48875;SDS011;34689;51.644;5.618;2023-04-24T14:19:04;1.23;;;0.30;;
48875;SDS011;34689;51.644;5.618;2023-04-24T14:21:31;2.05;;;0.60;;
48875;SDS011;34689;51.644;5.618;2023-04-24T14:23:57;1.55;;;0.40;;
48875;SDS011;34689;51.644;5.618;2023-04-24T14:26:26;2.85;;;0.70;;
48875;SDS011;34689;51.644;5.618;2023-04-24T14:28:51;0.73;;;0.52;;
48875;SDS011;34689;51.644;5.618;2023-04-24T14:31:18;3.40;;;0.47;;
48875;SDS011;34689;51.644;5.618;2023-04-24T14:33:43;1.75;;;0.75;;
48875;SDS011;34689;51.644;5.618;2023-04-24T14:36:09;2.28;;;0.68;;
48875;SDS011;34689;51.644;5.618;2023-04-24T14:38:41;0.63;;;0.40;;
48875;SDS011;34689;51.644;5.618;2023-04-24T14:41:07;3.10;;;0.95;;
48875;SDS011;34689;51.644;5.618;2023-04-24T14:43:35;4.25;;;0.80;;
48875;SDS011;34689;51.644;5.618;2023-04-24T14:46:01;2.15;;;1.08;;
48875;SDS011;34689;51.644;5.618;2023-04-24T14:48:28;5.38;;;1.17;;
48875;SDS011;34689;51.644;5.618;2023-04-24T14:50:59;2.90;;;1.13;;
48875;SDS011;34689;51.644;5.618;2023-04-24T14:53:28;4.35;;;1.00;;
48875;SDS011;34689;51.644;5.618;2023-04-24T14:55:55;1.63;;;0.85;;
48875;SDS011;34689;51.644;5.618;2023-04-24T14:58:26;2.85;;;0.90;;
48875;SDS011;34689;51.644;5.618;2023-04-24T15:00:54;2.65;;;1.02;;
48875;SDS011;34689;51.644;5.618;2023-04-24T15:03:23;3.28;;;1.20;;
48875;SDS011;34689;51.644;5.618;2023-04-24T15:05:51;2.15;;;0.57;;
48875;SDS011;34689;51.644;5.618;2023-04-24T15:08:20;1.52;;;0.55;;
48875;SDS011;34689;51.644;5.618;2023-04-24T15:10:46;5.13;;;0.88;;
48875;SDS011;34689;51.644;5.618;2023-04-24T15:13:14;1.15;;;0.60;;
48875;SDS011;34689;51.644;5.618;2023-04-24T15:15:43;2.38;;;0.85;;